createdAt,value
2023-03-06T00:00:04.398Z,99752.16
2023-03-06T00:01:17.575Z,99753.03
2023-03-06T00:02:20.082Z,99743.34
2023-03-06T00:03:22.992Z,99740.81
2023-03-06T00:04:25.428Z,99739.00
2023-03-06T00:05:28.107Z,99733.88
2023-03-06T00:06:31.021Z,99737.44
2023-03-06T00:07:33.327Z,99735.50
2023-03-06T00:08:35.557Z,99734.50
2023-03-06T00:09:37.805Z,99735.38
2023-03-06T00:10:40.566Z,99736.16
2023-03-06T00:11:43.095Z,99730.06
2023-03-06T00:12:45.809Z,99735.19
2023-03-06T00:13:48.016Z,99728.25
2023-03-06T00:14:50.203Z,99731.06
2023-03-06T00:15:52.747Z,99729.22
2023-03-06T00:16:58.454Z,99721.44
2023-03-06T00:18:09.789Z,99729.09
2023-03-06T00:19:12.437Z,99732.78
2023-03-06T00:20:15.724Z,99722.13
2023-03-06T00:21:18.233Z,99722.03
2023-03-06T00:22:20.611Z,99722.00
2023-03-06T00:23:22.852Z,99726.47
2023-03-06T00:24:25.170Z,99722.06
2023-03-06T00:25:27.727Z,99716.69
2023-03-06T00:26:29.910Z,99722.84
2023-03-06T00:27:33.245Z,99726.22
2023-03-06T00:28:36.358Z,99718.38
2023-03-06T00:29:49.756Z,99717.47
2023-03-06T00:30:52.151Z,99715.81
2023-03-06T00:31:54.356Z,99719.34
2023-03-06T00:32:56.785Z,99713.03
2023-03-06T00:33:59.017Z,99707.72
2023-03-06T00:35:01.551Z,99712.28
2023-03-06T00:36:06.928Z,99713.88
2023-03-06T00:37:09.478Z,99707.75
2023-03-06T00:38:12.554Z,99712.00
2023-03-06T00:39:15.002Z,99701.56
2023-03-06T00:40:20.834Z,99706.06
2023-03-06T00:41:23.245Z,99701.75
2023-03-06T00:42:25.968Z,99705.09
2023-03-06T00:43:28.167Z,99696.34
2023-03-06T00:44:31.626Z,99695.44
2023-03-06T00:45:33.952Z,99692.81
2023-03-06T00:46:36.631Z,99700.66
2023-03-06T00:47:39.105Z,99688.34
2023-03-06T00:48:41.289Z,99693.63
2023-03-06T00:49:47.014Z,99694.47
2023-03-06T00:50:49.243Z,99691.97
2023-03-06T00:51:51.516Z,99685.84
2023-03-06T00:52:54.051Z,99682.28
2023-03-06T00:53:56.235Z,99684.94
2023-03-06T00:54:59.818Z,99682.06
2023-03-06T00:56:02.294Z,99678.63
2023-03-06T00:57:04.687Z,99679.56
2023-03-06T00:58:06.959Z,99679.75
2023-03-06T00:59:09.754Z,99670.75
2023-03-06T01:00:13.791Z,99682.38
2023-03-06T01:01:17.039Z,99669.97
2023-03-06T01:02:19.394Z,99675.28
2023-03-06T01:03:21.847Z,99669.03
2023-03-06T01:04:27.590Z,99667.94
2023-03-06T01:05:31.456Z,99667.09
2023-03-06T01:06:34.868Z,99668.00
2023-03-06T01:07:39.036Z,99660.09
2023-03-06T01:08:41.288Z,99661.81
2023-03-06T01:09:43.541Z,99668.06
2023-03-06T01:10:45.766Z,99659.25
2023-03-06T01:11:48.006Z,99659.28
2023-03-06T01:12:50.323Z,99661.06
2023-03-06T01:13:53.961Z,99660.41
2023-03-06T01:14:56.161Z,99653.34
2023-03-06T01:16:10.231Z,99661.06
2023-03-06T01:17:12.693Z,99656.97
2023-03-06T01:18:15.543Z,99655.09
2023-03-06T01:19:18.432Z,99657.50
2023-03-06T01:20:21.908Z,99645.88
2023-03-06T01:21:24.574Z,99647.63
2023-03-06T01:22:27.007Z,99650.28
2023-03-06T01:24:32.111Z,99653.00
2023-03-06T01:25:34.437Z,99648.56
2023-03-06T01:26:36.796Z,99648.59
2023-03-06T01:28:41.974Z,99640.59
2023-03-06T01:29:44.207Z,99638.03
2023-03-06T01:30:46.495Z,99635.50
2023-03-06T01:31:48.936Z,99639.13
2023-03-06T01:32:51.330Z,99640.63
2023-03-06T01:33:54.019Z,99637.16
2023-03-06T01:34:56.320Z,99639.56
2023-03-06T01:35:58.677Z,99643.75
2023-03-06T01:37:00.935Z,99643.00
2023-03-06T01:38:03.208Z,99636.75
2023-03-06T01:39:05.490Z,99630.78
2023-03-06T01:40:09.836Z,99636.84
2023-03-06T01:41:15.690Z,99636.97
2023-03-06T01:42:18.419Z,99636.03
2023-03-06T01:43:33.065Z,99636.16
2023-03-06T01:44:35.352Z,99638.56
2023-03-06T01:45:37.549Z,99631.06
2023-03-06T01:46:44.871Z,99627.91
2023-03-06T01:47:47.086Z,99631.56
2023-03-06T01:48:55.132Z,99627.81
2023-03-06T01:49:59.085Z,99630.09
2023-03-06T01:51:01.647Z,99633.69
2023-03-06T01:52:09.127Z,99626.69
2023-03-06T01:53:13.227Z,99632.41
2023-03-06T01:54:21.450Z,99630.88
2023-03-06T01:55:30.907Z,99621.97
2023-03-06T01:56:33.701Z,99622.63
2023-03-06T01:57:41.477Z,99626.25
2023-03-06T01:58:44.647Z,99629.06
2023-03-06T01:59:53.333Z,99620.22
2023-03-06T02:00:55.732Z,99618.34
2023-03-06T02:02:01.791Z,99618.19
2023-03-06T02:03:08.933Z,99613.59
2023-03-06T02:04:13.725Z,99617.06
2023-03-06T02:05:16.240Z,99607.44
2023-03-06T02:06:21.894Z,99614.44
2023-03-06T02:07:25.536Z,99615.41
2023-03-06T02:08:29.897Z,99611.19
2023-03-06T02:09:34.819Z,99612.88
2023-03-06T02:10:38.159Z,99613.56
2023-03-06T02:11:44.067Z,99608.69
2023-03-06T02:12:53.016Z,99609.69
2023-03-06T02:13:55.673Z,99605.53
2023-03-06T02:14:58.138Z,99603.03
2023-03-06T02:16:00.450Z,99601.47
2023-03-06T02:17:03.917Z,99606.94
2023-03-06T02:18:06.399Z,99600.81
2023-03-06T02:19:34.643Z,99601.72
2023-03-06T02:20:46.299Z,99595.59
2023-03-06T02:21:51.399Z,99599.81
2023-03-06T02:23:02.555Z,99601.47
2023-03-06T02:24:14.681Z,99600.41
2023-03-06T02:25:37.310Z,99592.47
2023-03-06T02:26:41.944Z,99589.84
2023-03-06T02:27:44.916Z,99592.72
2023-03-06T02:28:47.254Z,99591.94
2023-03-06T02:29:49.518Z,99599.84
2023-03-06T02:30:54.361Z,99598.91
2023-03-06T02:31:57.322Z,99597.84
2023-03-06T02:32:59.768Z,99605.53
2023-03-06T02:34:15.327Z,99601.91
2023-03-06T02:35:25.943Z,99599.00
2023-03-06T02:36:29.017Z,99601.53
2023-03-06T02:37:31.259Z,99603.31
2023-03-06T02:38:47.152Z,99603.47
2023-03-06T02:40:00.838Z,99605.50
2023-03-06T02:41:07.382Z,99601.75
2023-03-06T02:42:09.844Z,99599.94
2023-03-06T02:43:15.330Z,99605.91
2023-03-06T02:44:17.666Z,99606.00
2023-03-06T02:45:32.169Z,99604.38
2023-03-06T02:46:37.058Z,99604.31
2023-03-06T02:47:39.234Z,99603.41
2023-03-06T02:48:41.440Z,99602.56
2023-03-06T02:49:43.864Z,99601.72
2023-03-06T02:50:47.307Z,99596.34
2023-03-06T02:51:49.835Z,99601.03
2023-03-06T02:52:52.092Z,99592.13
2023-03-06T02:53:54.342Z,99599.09
2023-03-06T02:54:56.839Z,99596.44
2023-03-06T02:55:59.707Z,99585.34
2023-03-06T02:57:02.283Z,99586.22
2023-03-06T02:58:06.910Z,99591.50
2023-03-06T02:59:10.060Z,99586.28
2023-03-06T03:00:14.294Z,99586.22
2023-03-06T03:01:17.217Z,99588.19
2023-03-06T03:02:19.784Z,99576.03
2023-03-06T03:03:22.132Z,99584.88
2023-03-06T03:04:24.436Z,99578.59
2023-03-06T03:05:27.214Z,99582.81
2023-03-06T03:06:35.488Z,99573.00
2023-03-06T03:07:38.379Z,99577.22
2023-03-06T03:08:40.695Z,99581.56
2023-03-06T03:09:43.945Z,99572.75
2023-03-06T03:10:46.380Z,99574.53
2023-03-06T03:11:49.983Z,99579.06
2023-03-06T03:12:52.947Z,99567.63
2023-03-06T03:13:56.068Z,99577.50
2023-03-06T03:15:00.310Z,99564.06
2023-03-06T03:16:05.307Z,99557.56
2023-03-06T03:17:07.603Z,99562.72
2023-03-06T03:18:11.267Z,99558.38
2023-03-06T03:19:13.452Z,99561.03
2023-03-06T03:20:19.098Z,99561.16
2023-03-06T03:21:21.326Z,99552.94
2023-03-06T03:22:24.329Z,99553.72
2023-03-06T03:23:27.179Z,99552.94
2023-03-06T03:24:32.943Z,99554.59
2023-03-06T03:25:36.146Z,99549.47
2023-03-06T03:26:38.942Z,99549.28
2023-03-06T03:27:47.196Z,99556.34
2023-03-06T03:28:49.539Z,99542.44
2023-03-06T03:29:57.565Z,99538.91
2023-03-06T03:31:04.914Z,99536.34
2023-03-06T03:32:07.831Z,99545.03
2023-03-06T03:33:11.430Z,99539.66
2023-03-06T03:34:13.948Z,99537.88
2023-03-06T03:35:17.940Z,99540.13
2023-03-06T03:36:21.761Z,99537.19
2023-03-06T03:37:24.809Z,99534.00
2023-03-06T03:38:27.799Z,99536.00
2023-03-06T03:39:30.710Z,99531.53
2023-03-06T03:40:32.964Z,99536.00
2023-03-06T03:41:35.553Z,99535.09
2023-03-06T03:42:41.375Z,99532.44
2023-03-06T03:43:45.281Z,99532.72
2023-03-06T03:44:47.610Z,99535.38
2023-03-06T03:45:49.872Z,99534.63
2023-03-06T03:46:52.583Z,99531.00
2023-03-06T03:47:57.997Z,99535.25
2023-03-06T03:49:00.775Z,99527.28
2023-03-06T03:50:03.651Z,99532.78
2023-03-06T03:51:12.356Z,99531.16
2023-03-06T03:52:19.250Z,99526.75
2023-03-06T03:53:21.630Z,99525.03
2023-03-06T03:54:24.164Z,99530.28
2023-03-06T03:55:29.080Z,99531.78
2023-03-06T03:56:31.712Z,99527.28
2023-03-06T03:57:39.514Z,99526.50
2023-03-06T03:58:42.802Z,99529.88
2023-03-06T03:59:45.023Z,99523.63
2023-03-06T04:00:55.086Z,99524.84
2023-03-06T04:01:57.670Z,99525.94
2023-03-06T04:03:00.460Z,99520.81
2023-03-06T04:04:07.519Z,99528.63
2023-03-06T04:05:12.630Z,99521.63
2023-03-06T04:06:14.983Z,99524.13
2023-03-06T04:07:17.453Z,99527.44
2023-03-06T04:08:21.373Z,99522.88
2023-03-06T04:09:24.819Z,99523.53
2023-03-06T04:10:27.143Z,99526.09
2023-03-06T04:11:30.078Z,99525.50
2023-03-06T04:12:32.363Z,99524.28
2023-03-06T04:13:35.055Z,99527.19
2023-03-06T04:14:38.510Z,99532.50
2023-03-06T04:15:41.187Z,99528.03
2023-03-06T04:16:43.754Z,99527.44
2023-03-06T04:17:46.070Z,99529.97
2023-03-06T04:18:51.651Z,99522.00
2023-03-06T04:19:55.678Z,99531.50
2023-03-06T04:20:58.620Z,99527.13
2023-03-06T04:22:02.308Z,99527.75
2023-03-06T04:23:06.937Z,99523.16
2023-03-06T04:24:09.249Z,99532.91
2023-03-06T04:25:11.546Z,99531.16
2023-03-06T04:26:13.817Z,99520.56
2023-03-06T04:27:16.123Z,99524.97
2023-03-06T04:28:20.484Z,99523.13
2023-03-06T04:29:22.907Z,99529.22
2023-03-06T04:30:25.288Z,99521.34
2023-03-06T04:31:28.052Z,99519.75
2023-03-06T04:32:30.514Z,99520.56
2023-03-06T04:33:33.571Z,99522.31
2023-03-06T04:34:36.175Z,99515.28
2023-03-06T04:35:38.501Z,99520.91
2023-03-06T04:36:46.604Z,99519.97
2023-03-06T04:37:51.594Z,99516.19
2023-03-06T04:38:56.208Z,99515.38
2023-03-06T04:40:01.304Z,99512.72
2023-03-06T04:41:03.839Z,99524.97
2023-03-06T04:42:06.339Z,99520.22
2023-03-06T04:43:08.538Z,99506.00
2023-03-06T04:44:20.123Z,99517.75
2023-03-06T04:45:22.882Z,99515.09
2023-03-06T04:46:25.340Z,99512.56
2023-03-06T04:47:27.756Z,99507.63
2023-03-06T04:48:30.010Z,99504.16
2023-03-06T04:49:32.643Z,99509.34
2023-03-06T04:50:35.314Z,99509.13
2023-03-06T04:51:37.476Z,99504.78
2023-03-06T04:52:40.535Z,99497.53
2023-03-06T04:53:42.826Z,99504.47
2023-03-06T04:54:46.290Z,99504.34
2023-03-06T04:55:48.529Z,99497.22
2023-03-06T04:56:50.872Z,99496.69
2023-03-06T04:57:53.424Z,99490.59
2023-03-06T04:58:55.677Z,99494.03
2023-03-06T04:59:58.321Z,99491.44
2023-03-06T05:01:00.666Z,99489.75
2023-03-06T05:02:03.085Z,99493.97
2023-03-06T05:03:05.503Z,99491.25
2023-03-06T05:04:07.724Z,99493.66
2023-03-06T05:05:12.298Z,99492.03
2023-03-06T05:06:14.524Z,99495.88
2023-03-06T05:07:16.829Z,99488.94
2023-03-06T05:08:19.150Z,99485.09
2023-03-06T05:09:21.370Z,99488.56
2023-03-06T05:10:24.328Z,99481.50
2023-03-06T05:11:26.672Z,99480.38
2023-03-06T05:12:28.922Z,99477.00
2023-03-06T05:13:31.305Z,99482.28
2023-03-06T05:14:34.587Z,99475.31
2023-03-06T05:15:37.173Z,99478.16
2023-03-06T05:16:48.867Z,99481.88
2023-03-06T05:18:09.848Z,99474.84
2023-03-06T05:19:12.291Z,99475.84
2023-03-06T05:20:16.108Z,99477.53
2023-03-06T05:21:18.308Z,99480.00
2023-03-06T05:22:20.749Z,99472.25
2023-03-06T05:23:30.406Z,99474.94
2023-03-06T05:24:32.701Z,99479.25
2023-03-06T05:25:35.109Z,99471.50
2023-03-06T05:26:37.482Z,99474.97
2023-03-06T05:27:41.501Z,99472.66
2023-03-06T05:28:43.844Z,99478.84
2023-03-06T05:29:46.085Z,99478.53
2023-03-06T05:30:48.683Z,99475.78
2023-03-06T05:31:50.976Z,99478.59
2023-03-06T05:32:53.314Z,99478.53
2023-03-06T05:33:57.954Z,99475.09
2023-03-06T05:35:00.342Z,99479.31
2023-03-06T05:36:03.058Z,99482.81
2023-03-06T05:37:05.361Z,99479.38
2023-03-06T05:38:07.573Z,99482.00
2023-03-06T05:39:10.223Z,99483.56
2023-03-06T05:40:12.956Z,99478.16
2023-03-06T05:41:15.421Z,99490.66
2023-03-06T05:42:18.456Z,99488.34
2023-03-06T05:43:20.901Z,99492.75
2023-03-06T05:44:23.989Z,99492.97
2023-03-06T05:45:26.390Z,99490.25
2023-03-06T05:46:28.721Z,99489.31
2023-03-06T05:47:31.944Z,99491.84
2023-03-06T05:48:35.732Z,99492.53
2023-03-06T05:49:38.348Z,99498.94
2023-03-06T05:50:40.753Z,99505.81
2023-03-06T05:51:42.929Z,99495.41
2023-03-06T05:52:45.107Z,99495.31
2023-03-06T05:53:47.800Z,99497.94
2023-03-06T05:54:51.805Z,99493.56
2023-03-06T05:56:03.489Z,99498.97
2023-03-06T05:57:05.907Z,99497.94
2023-03-06T05:58:08.210Z,99491.66
2023-03-06T05:59:10.405Z,99495.13
2023-03-06T06:00:13.473Z,99493.31
2023-03-06T06:01:19.678Z,99495.91
2023-03-06T06:02:22.120Z,99498.69
2023-03-06T06:03:25.095Z,99497.13
2023-03-06T06:04:27.826Z,99493.66
2023-03-06T06:05:30.059Z,99499.56
2023-03-06T06:06:32.736Z,99494.50
2023-03-06T06:07:35.359Z,99502.50
2023-03-06T06:08:37.825Z,99498.84
2023-03-06T06:09:40.284Z,99496.31
2023-03-06T06:10:42.511Z,99495.41
2023-03-06T06:11:45.153Z,99501.22
2023-03-06T06:12:47.468Z,99502.16
2023-03-06T06:13:49.701Z,99494.25
2023-03-06T06:14:51.959Z,99499.56
2023-03-06T06:15:54.283Z,99497.84
2023-03-06T06:16:56.721Z,99493.59
2023-03-06T06:17:59.241Z,99497.69
2023-03-06T06:19:01.704Z,99500.00
2023-03-06T06:20:04.680Z,99493.09
2023-03-06T06:21:08.879Z,99494.19
2023-03-06T06:22:11.415Z,99501.13
2023-03-06T06:23:13.742Z,99498.38
2023-03-06T06:24:17.823Z,99497.38
2023-03-06T06:25:20.273Z,99495.75
2023-03-06T06:26:22.561Z,99494.94
2023-03-06T06:27:24.934Z,99489.44
2023-03-06T06:28:29.131Z,99483.19
2023-03-06T06:29:31.643Z,99488.44
2023-03-06T06:30:34.378Z,99492.13
2023-03-06T06:31:37.300Z,99492.25
2023-03-06T06:32:39.822Z,99486.34
2023-03-06T06:33:42.191Z,99492.41
2023-03-06T06:34:44.612Z,99499.25
2023-03-06T06:35:47.122Z,99496.59
2023-03-06T06:36:53.164Z,99496.50
2023-03-06T06:37:55.776Z,99493.88
2023-03-06T06:38:58.174Z,99491.41
2023-03-06T06:40:00.560Z,99494.91
2023-03-06T06:41:35.656Z,99492.94
2023-03-06T06:42:33.295Z,99496.81
2023-03-06T06:43:39.624Z,99491.38
2023-03-06T06:44:41.853Z,99493.97
2023-03-06T06:45:44.339Z,99492.50
2023-03-06T06:48:10.655Z,99490.66
2023-03-06T06:49:14.069Z,99489.50
2023-03-06T06:50:16.504Z,99496.28
2023-03-06T06:51:18.704Z,99490.31
2023-03-06T06:52:21.871Z,99487.88
2023-03-06T06:53:26.788Z,99496.06
2023-03-06T06:54:30.049Z,99499.41
2023-03-06T06:55:32.344Z,99500.16
2023-03-06T06:56:34.990Z,99502.50
2023-03-06T06:57:37.370Z,99496.22
2023-03-06T06:58:39.654Z,99499.72
2023-03-06T06:59:47.925Z,99497.00
2023-03-06T07:00:50.394Z,99499.69
2023-03-06T07:01:52.988Z,99499.50
2023-03-06T07:02:55.649Z,99496.91
2023-03-06T07:03:57.939Z,99495.72
2023-03-06T07:05:04.518Z,99492.84
2023-03-06T07:06:07.578Z,99483.00
2023-03-06T07:07:10.102Z,99490.16
2023-03-06T07:08:12.562Z,99494.41
2023-03-06T07:09:40.229Z,99487.16
2023-03-06T07:10:42.433Z,99489.88
2023-03-06T07:11:44.814Z,99495.44
2023-03-06T07:12:47.341Z,99491.19
2023-03-06T07:13:49.661Z,99493.81
2023-03-06T07:14:52.100Z,99491.84
2023-03-06T07:15:54.394Z,99490.00
2023-03-06T07:16:56.606Z,99487.13
2023-03-06T07:17:59.075Z,99489.06
2023-03-06T07:19:01.403Z,99492.34
2023-03-06T07:20:06.989Z,99493.28
2023-03-06T07:21:10.108Z,99492.28
2023-03-06T07:22:12.301Z,99490.31
2023-03-06T07:23:14.712Z,99490.78
2023-03-06T07:24:17.565Z,99491.72
2023-03-06T07:25:20.729Z,99492.59
2023-03-06T07:26:24.122Z,99495.09
2023-03-06T07:27:26.627Z,99494.56
2023-03-06T07:28:29.322Z,99486.75
2023-03-06T07:29:32.989Z,99494.41
2023-03-06T07:30:35.401Z,99494.47
2023-03-06T07:31:37.904Z,99491.84
2023-03-06T07:32:40.264Z,99500.38
2023-03-06T07:33:42.913Z,99496.59
2023-03-06T07:34:46.444Z,99498.47
2023-03-06T07:35:48.714Z,99495.09
2023-03-06T07:36:51.127Z,99493.97
2023-03-06T07:37:53.768Z,99500.06
2023-03-06T07:38:56.077Z,99503.28
2023-03-06T07:39:58.336Z,99497.66
2023-03-06T07:41:00.575Z,99502.16
2023-03-06T07:42:02.869Z,99504.03
2023-03-06T07:43:18.838Z,99505.34
2023-03-06T07:44:28.507Z,99500.41
2023-03-06T07:45:30.755Z,99498.44
2023-03-06T07:46:33.040Z,99495.09
2023-03-06T07:47:35.517Z,99502.34
2023-03-06T07:48:38.079Z,99503.75
2023-03-06T07:49:40.392Z,99498.19
2023-03-06T07:50:43.378Z,99497.66
2023-03-06T07:51:45.738Z,99500.72
2023-03-06T07:52:49.522Z,99501.50
2023-03-06T07:53:51.984Z,99496.09
2023-03-06T07:54:54.303Z,99498.56
2023-03-06T07:55:56.649Z,99494.34
2023-03-06T07:56:59.117Z,99494.97
2023-03-06T07:58:01.537Z,99498.44
2023-03-06T07:59:03.819Z,99495.38
2023-03-06T08:00:31.106Z,99506.09
2023-03-06T08:01:33.586Z,99488.81
2023-03-06T08:02:35.914Z,99494.75
2023-03-06T08:03:38.436Z,99489.97
2023-03-06T08:04:41.274Z,99490.63
2023-03-06T08:05:44.819Z,99497.41
2023-03-06T08:06:47.205Z,99495.81
2023-03-06T08:07:49.666Z,99500.69
2023-03-06T08:08:54.361Z,99501.81
2023-03-06T08:09:57.020Z,99504.41
2023-03-06T08:10:59.234Z,99492.63
2023-03-06T08:12:01.848Z,99501.72
2023-03-06T08:13:04.849Z,99500.72
2023-03-06T08:14:07.446Z,99496.41
2023-03-06T08:15:11.610Z,99501.63
2023-03-06T08:16:13.998Z,99502.47
2023-03-06T08:17:16.315Z,99495.97
2023-03-06T08:18:19.019Z,99504.47
2023-03-06T08:19:21.766Z,99504.63
2023-03-06T08:20:24.019Z,99505.78
2023-03-06T08:21:28.151Z,99505.47
2023-03-06T08:22:30.623Z,99502.06
2023-03-06T08:23:34.676Z,99502.22
2023-03-06T08:24:37.161Z,99504.63
2023-03-06T08:25:39.402Z,99500.88
2023-03-06T08:26:41.652Z,99502.66
2023-03-06T08:27:43.945Z,99501.00
2023-03-06T08:28:46.474Z,99505.44
2023-03-06T08:29:57.800Z,99503.19
2023-03-06T08:31:11.859Z,99502.44
2023-03-06T08:32:14.168Z,99504.97
2023-03-06T08:33:16.510Z,99505.66
2023-03-06T08:34:21.914Z,99505.63
2023-03-06T08:35:24.294Z,99505.41
2023-03-06T08:36:26.624Z,99499.81
2023-03-06T08:37:29.073Z,99511.34
2023-03-06T08:38:31.906Z,99506.75
2023-03-06T08:39:37.374Z,99503.03
2023-03-06T08:40:41.269Z,99499.19
2023-03-06T08:41:43.576Z,99499.13
2023-03-06T08:42:47.820Z,99497.47
2023-03-06T08:43:50.841Z,99495.44
2023-03-06T08:44:53.375Z,99497.25
2023-03-06T08:45:57.200Z,99499.59
2023-03-06T08:46:59.585Z,99502.63
2023-03-06T08:48:02.033Z,99499.84
2023-03-06T08:49:04.518Z,99502.56
2023-03-06T08:50:07.231Z,99499.56
2023-03-06T08:51:10.274Z,99497.53
2023-03-06T08:52:12.582Z,99496.72
2023-03-06T08:53:14.961Z,99489.34
2023-03-06T08:54:17.212Z,99492.97
2023-03-06T08:55:19.638Z,99499.31
2023-03-06T08:56:31.209Z,99499.22
2023-03-06T08:57:33.637Z,99507.56
2023-03-06T08:58:36.271Z,99504.91
2023-03-06T08:59:38.674Z,99493.91
2023-03-06T09:00:41.067Z,99496.91
2023-03-06T09:01:45.165Z,99497.66
2023-03-06T09:02:50.313Z,99497.38
2023-03-06T09:03:58.458Z,99501.88
2023-03-06T09:05:01.556Z,99502.28
2023-03-06T09:06:03.904Z,99496.19
2023-03-06T09:07:06.234Z,99496.19
2023-03-06T09:08:08.587Z,99497.94
2023-03-06T09:09:12.177Z,99501.38
2023-03-06T09:10:17.700Z,99497.53
2023-03-06T09:11:23.363Z,99500.88
2023-03-06T09:12:25.730Z,99496.81
2023-03-06T09:13:28.372Z,99501.13
2023-03-06T09:14:31.987Z,99497.25
2023-03-06T09:15:36.415Z,99501.34
2023-03-06T09:16:38.862Z,99500.19
2023-03-06T09:17:41.387Z,99495.72
2023-03-06T09:18:43.644Z,99499.50
2023-03-06T09:19:46.190Z,99502.66
2023-03-06T09:20:48.456Z,99502.66
2023-03-06T09:21:50.682Z,99502.50
2023-03-06T09:22:53.064Z,99508.19
2023-03-06T09:23:55.570Z,99495.16
2023-03-06T09:24:58.458Z,99503.31
2023-03-06T09:26:02.110Z,99501.69
2023-03-06T09:27:08.312Z,99499.22
2023-03-06T09:28:12.044Z,99500.94
2023-03-06T09:29:16.482Z,99499.28
2023-03-06T09:30:19.168Z,99505.78
2023-03-06T09:31:21.565Z,99499.97
2023-03-06T09:32:24.552Z,99503.31
2023-03-06T09:33:28.747Z,99496.97
2023-03-06T09:34:31.049Z,99498.41
2023-03-06T09:35:33.505Z,99499.91
2023-03-06T09:36:49.242Z,99499.59
2023-03-06T09:37:57.696Z,99494.25
2023-03-06T09:39:00.032Z,99487.06
2023-03-06T09:40:04.319Z,99495.09
2023-03-06T09:41:26.337Z,99494.19
2023-03-06T09:42:29.452Z,99492.84
2023-03-06T09:43:41.648Z,99494.88
2023-03-06T09:44:50.768Z,99480.84
2023-03-06T09:45:54.006Z,99485.53
2023-03-06T09:47:11.649Z,99490.34
2023-03-06T09:48:16.616Z,99488.75
2023-03-06T09:49:34.148Z,99491.16
2023-03-06T09:50:36.578Z,99483.50
2023-03-06T09:52:21.704Z,99485.59
2023-03-06T09:53:45.192Z,99485.72
2023-03-06T09:55:04.567Z,99485.72
2023-03-06T09:56:16.258Z,99481.63
2023-03-06T09:57:22.134Z,99486.78
2023-03-06T09:58:27.116Z,99477.13
2023-03-06T09:59:31.913Z,99487.25
2023-03-06T10:00:39.790Z,99475.84
2023-03-06T10:01:48.102Z,99475.31
2023-03-06T10:02:57.027Z,99480.50
2023-03-06T10:04:41.672Z,99482.56
2023-03-06T10:05:52.389Z,99487.06
2023-03-06T10:06:59.742Z,99479.50
2023-03-06T10:08:17.563Z,99485.13
2023-03-06T10:09:43.648Z,99476.94
2023-03-06T10:10:59.717Z,99483.91
2023-03-06T10:12:09.262Z,99478.72
2023-03-06T10:13:43.755Z,99482.75
2023-03-06T10:14:57.182Z,99477.59
2023-03-06T10:16:24.252Z,99478.88
2023-03-06T10:17:34.261Z,99484.38
2023-03-06T10:18:39.281Z,99480.22
2023-03-06T10:19:42.513Z,99482.44
2023-03-06T10:20:59.477Z,99478.63
2023-03-06T10:22:18.754Z,99484.69
2023-03-06T10:23:53.843Z,99478.13
2023-03-06T10:25:02.460Z,99474.81
2023-03-06T10:26:12.565Z,99480.78
2023-03-06T10:27:33.236Z,99472.75
2023-03-06T10:28:45.711Z,99470.84
2023-03-06T10:30:03.307Z,99468.78
2023-03-06T10:31:15.429Z,99468.78
2023-03-06T10:32:30.487Z,99463.06
2023-03-06T10:33:56.218Z,99464.66
2023-03-06T10:35:02.043Z,99463.97
2023-03-06T10:36:04.912Z,99475.34
2023-03-06T10:37:19.653Z,99471.50
2023-03-06T10:38:38.298Z,99468.59
2023-03-06T10:39:40.704Z,99465.88
2023-03-06T10:40:54.503Z,99459.94
2023-03-06T10:42:22.183Z,99464.72
2023-03-06T10:43:24.445Z,99456.44
2023-03-06T10:44:26.777Z,99459.84
2023-03-06T10:45:35.194Z,99463.78
2023-03-06T10:46:48.244Z,99459.63
2023-03-06T10:48:08.734Z,99457.75
2023-03-06T10:49:33.201Z,99465.03
2023-03-06T10:50:35.495Z,99460.16
2023-03-06T10:51:38.153Z,99460.69
2023-03-06T10:52:40.521Z,99458.69
2023-03-06T10:53:53.189Z,99459.16
2023-03-06T10:55:22.979Z,99455.88
2023-03-06T10:56:40.548Z,99460.16
2023-03-06T10:57:42.928Z,99456.59
2023-03-06T10:58:45.107Z,99461.63
2023-03-06T10:59:59.049Z,99459.31
2023-03-06T11:01:18.322Z,99457.41
2023-03-06T11:02:29.517Z,99459.94
2023-03-06T11:03:31.990Z,99457.16
2023-03-06T11:04:36.436Z,99452.50
2023-03-06T11:05:38.713Z,99447.19
2023-03-06T11:06:40.969Z,99446.44
2023-03-06T11:08:00.642Z,99455.13
2023-03-06T11:09:29.058Z,99449.72
2023-03-06T11:10:31.996Z,99445.59
2023-03-06T11:11:37.709Z,99445.00
2023-03-06T11:12:43.524Z,99451.38
2023-03-06T11:13:57.641Z,99443.06
2023-03-06T11:15:14.852Z,99444.50
2023-03-06T11:16:25.624Z,99444.88
2023-03-06T11:17:30.904Z,99442.31
2023-03-06T11:18:39.564Z,99445.16
2023-03-06T11:19:42.123Z,99442.63
2023-03-06T11:20:52.988Z,99449.22
2023-03-06T11:22:05.787Z,99441.06
2023-03-06T11:23:26.436Z,99433.88
2023-03-06T11:24:35.476Z,99441.06
2023-03-06T11:25:48.339Z,99432.97
2023-03-06T11:27:00.600Z,99439.88
2023-03-06T11:28:21.723Z,99434.94
2023-03-06T11:29:38.586Z,99441.31
2023-03-06T11:30:49.712Z,99422.75
2023-03-06T11:31:55.379Z,99430.44
2023-03-06T11:33:08.292Z,99421.88
2023-03-06T11:34:21.079Z,99426.50
2023-03-06T11:35:45.434Z,99421.88
2023-03-06T11:36:54.489Z,99422.41
2023-03-06T11:38:10.906Z,99424.69
2023-03-06T11:39:34.313Z,99434.97
2023-03-06T11:40:41.893Z,99430.25
2023-03-06T11:41:56.908Z,99431.69
2023-03-06T11:43:21.387Z,99432.25
2023-03-06T11:44:25.712Z,99426.88
2023-03-06T11:45:45.145Z,99419.53
2023-03-06T11:46:53.677Z,99418.09
2023-03-06T11:48:01.714Z,99413.41
2023-03-06T11:49:29.072Z,99419.28
2023-03-06T11:50:35.870Z,99411.91
2023-03-06T11:51:44.686Z,99412.78
2023-03-06T11:52:56.612Z,99410.91
2023-03-06T11:54:00.584Z,99414.94
2023-03-06T11:55:02.797Z,99408.63
2023-03-06T11:56:19.598Z,99412.94
2023-03-06T11:57:30.304Z,99408.00
2023-03-06T11:58:56.334Z,99416.97
2023-03-06T12:00:15.268Z,99419.13
2023-03-06T12:01:27.208Z,99410.91
2023-03-06T12:02:59.174Z,99400.63
2023-03-06T12:04:04.231Z,99414.47
2023-03-06T12:05:31.500Z,99406.91
2023-03-06T12:07:03.229Z,99408.75
2023-03-06T12:08:33.585Z,99406.03
2023-03-06T12:09:57.153Z,99396.94
2023-03-06T12:11:20.911Z,99409.13
2023-03-06T12:12:35.144Z,99404.13
2023-03-06T12:14:14.736Z,99393.63
2023-03-06T12:15:44.773Z,99396.75
2023-03-06T12:17:04.035Z,99390.22
2023-03-06T12:18:25.380Z,99392.28
2023-03-06T12:19:57.092Z,99399.97
2023-03-06T12:21:24.632Z,99392.88
2023-03-06T12:22:57.771Z,99396.22
2023-03-06T12:24:15.237Z,99394.38
2023-03-06T12:25:33.584Z,99393.44
2023-03-06T12:27:02.217Z,99390.84
2023-03-06T12:28:35.328Z,99396.22
2023-03-06T12:29:40.610Z,99388.69
2023-03-06T12:30:58.018Z,99386.44
2023-03-06T12:32:35.110Z,99390.09
2023-03-06T12:34:16.608Z,99392.44
2023-03-06T12:35:38.395Z,99383.03
2023-03-06T12:36:58.986Z,99389.81
2023-03-06T12:38:10.756Z,99380.38
2023-03-06T12:39:25.681Z,99380.00
2023-03-06T12:40:45.863Z,99390.06
2023-03-06T12:41:56.369Z,99376.72
2023-03-06T12:43:10.483Z,99379.28
2023-03-06T12:44:43.573Z,99382.97
2023-03-06T12:45:46.851Z,99374.66
2023-03-06T12:46:57.965Z,99385.94
2023-03-06T12:48:02.215Z,99391.41
2023-03-06T12:49:23.131Z,99387.94
2023-03-06T12:50:38.782Z,99381.19
2023-03-06T12:51:43.470Z,99379.47
2023-03-06T12:52:47.172Z,99387.50
2023-03-06T12:53:51.466Z,99388.22
2023-03-06T12:54:54.733Z,99373.06
2023-03-06T12:55:59.448Z,99380.84
2023-03-06T12:57:03.191Z,99385.94
2023-03-06T12:58:30.497Z,99386.03
2023-03-06T12:59:47.106Z,99382.69
2023-03-06T13:01:27.701Z,99393.47
2023-03-06T13:03:08.204Z,99392.63